createdAt,value
2018-03-06T00:01:47.274Z,3.47
2018-03-06T00:04:14.732Z,3.50
2018-03-06T00:06:42.234Z,3.97
2018-03-06T00:09:10.273Z,4.10
2018-03-06T00:11:39.612Z,4.83
2018-03-06T00:14:07.895Z,4.30
2018-03-06T00:16:37.830Z,5.00
2018-03-06T00:19:08.753Z,4.70
2018-03-06T00:21:48.189Z,4.23
2018-03-06T00:24:15.923Z,3.80
2018-03-06T00:26:43.395Z,4.07
2018-03-06T00:29:10.966Z,4.20
2018-03-06T00:31:39.278Z,4.80
2018-03-06T00:34:07.746Z,4.23
2018-03-06T00:36:38.502Z,3.63
2018-03-06T00:39:07.411Z,4.13
2018-03-06T00:41:41.879Z,4.20
2018-03-06T00:44:14.628Z,3.97
2018-03-06T00:46:43.083Z,4.40
2018-03-06T00:49:11.350Z,4.73
2018-03-06T00:51:41.909Z,4.30
2018-03-06T00:54:17.286Z,3.97
2018-03-06T00:56:48.447Z,4.57
2018-03-06T00:59:19.439Z,4.80
2018-03-06T01:01:47.625Z,5.40
2018-03-06T01:04:16.993Z,4.70
2018-03-06T01:06:48.343Z,4.70
2018-03-06T01:09:23.441Z,4.73
2018-03-06T01:11:51.571Z,4.80
2018-03-06T01:14:19.913Z,4.83
2018-03-06T01:16:48.070Z,4.33
2018-03-06T01:19:30.851Z,4.87
2018-03-06T01:22:10.923Z,4.17
2018-03-06T01:24:46.045Z,4.20
2018-03-06T01:27:23.302Z,4.67
2018-03-06T01:29:50.752Z,4.37
2018-03-06T01:32:19.498Z,4.20
2018-03-06T01:34:48.751Z,4.40
2018-03-06T01:37:20.368Z,4.27
2018-03-06T01:39:50.967Z,4.87
2018-03-06T01:42:24.033Z,5.13
2018-03-06T01:44:52.259Z,5.17
2018-03-06T01:47:22.950Z,4.77
2018-03-06T01:49:51.174Z,5.00
2018-03-06T01:52:18.945Z,5.27
2018-03-06T01:54:47.075Z,4.60
2018-03-06T01:57:33.229Z,5.80
2018-03-06T02:03:17.901Z,5.00
2018-03-06T02:05:49.051Z,6.00
2018-03-06T02:11:22.794Z,5.43
2018-03-06T02:17:19.499Z,5.47
2018-03-06T02:19:52.648Z,4.90
2018-03-06T02:22:20.888Z,4.77
2018-03-06T02:24:51.555Z,5.80
2018-03-06T02:33:58.385Z,5.67
2018-03-06T02:37:16.926Z,6.70
2018-03-06T02:45:58.120Z,5.63
2018-03-06T02:54:25.757Z,6.00
2018-03-06T02:56:55.328Z,6.30
2018-03-06T03:05:23.430Z,6.20
2018-03-06T03:07:51.065Z,6.67
2018-03-06T03:10:18.599Z,6.60
2018-03-06T03:16:54.176Z,6.30
2018-03-06T03:47:18.985Z,6.57
2018-03-06T03:52:52.459Z,6.40
2018-03-06T03:55:19.910Z,6.80
2018-03-06T03:57:48.347Z,6.93
2018-03-06T04:00:17.033Z,6.10
2018-03-06T04:02:46.056Z,6.47
2018-03-06T04:05:15.464Z,6.73
2018-03-06T04:07:50.585Z,7.37
2018-03-06T04:10:18.092Z,6.73
2018-03-06T04:15:50.005Z,6.20
2018-03-06T04:27:28.601Z,7.40
2018-03-06T04:39:52.078Z,7.00
2018-03-06T04:42:56.920Z,6.47
2018-03-06T04:51:55.712Z,7.40
2018-03-06T04:54:50.972Z,7.60
2018-03-06T05:04:13.993Z,8.17
2018-03-06T05:06:54.601Z,8.20
2018-03-06T05:09:23.980Z,7.97
2018-03-06T05:20:57.645Z,8.13
2018-03-06T05:23:25.178Z,8.97
2018-03-06T05:25:53.401Z,8.67
2018-03-06T05:31:27.067Z,9.50
2018-03-06T05:34:18.725Z,9.53
2018-03-06T05:36:49.473Z,8.50
2018-03-06T05:39:26.281Z,8.93
2018-03-06T05:42:16.140Z,9.50
2018-03-06T05:47:48.764Z,10.00
2018-03-06T05:50:24.627Z,9.90
2018-03-06T05:53:20.636Z,10.90
2018-03-06T06:02:22.505Z,11.00
2018-03-06T06:04:52.680Z,10.93
2018-03-06T06:07:24.458Z,10.83
2018-03-06T06:12:53.326Z,11.60
2018-03-06T06:15:21.576Z,11.00
2018-03-06T06:21:07.061Z,11.33
2018-03-06T06:23:48.226Z,11.17
2018-03-06T06:29:22.583Z,10.60
2018-03-06T06:31:57.616Z,9.80
2018-03-06T06:43:27.361Z,10.63
2018-03-06T06:46:23.966Z,10.70
2018-03-06T06:49:21.048Z,11.03
2018-03-06T06:51:50.433Z,10.90
2018-03-06T07:00:22.682Z,11.33
2018-03-06T07:02:51.745Z,10.27
2018-03-06T07:05:19.305Z,10.43
2018-03-06T07:07:50.301Z,10.37
2018-03-06T07:14:21.717Z,11.07
2018-03-06T07:25:52.449Z,10.50
2018-03-06T07:28:54.142Z,9.33
2018-03-06T07:49:19.122Z,10.20
2018-03-06T07:51:48.804Z,10.83
2018-03-06T07:54:23.696Z,10.53
2018-03-06T07:57:21.316Z,12.30
2018-03-06T08:00:18.884Z,10.87
2018-03-06T08:02:49.134Z,12.67
2018-03-06T08:05:25.221Z,11.30
2018-03-06T08:08:18.894Z,11.40
2018-03-06T08:11:19.934Z,10.83
2018-03-06T08:13:47.416Z,11.13
2018-03-06T08:16:17.634Z,12.80
2018-03-06T08:21:51.343Z,13.73
2018-03-06T08:27:25.597Z,12.80
2018-03-06T08:29:53.089Z,13.03
2018-03-06T08:35:28.853Z,13.83
2018-03-06T08:37:57.242Z,13.00
2018-03-06T08:40:25.482Z,13.20
2018-03-06T08:45:56.917Z,13.90
2018-03-06T08:48:24.445Z,12.53
2018-03-06T08:54:18.859Z,13.90
2018-03-06T08:56:49.130Z,14.00
2018-03-06T08:59:52.928Z,14.90
2018-03-06T09:05:21.685Z,13.93
2018-03-06T09:10:52.484Z,13.27
2018-03-06T09:13:21.658Z,13.73
2018-03-06T09:15:49.994Z,14.23
2018-03-06T09:21:21.584Z,13.63
2018-03-06T09:23:52.043Z,13.50
2018-03-06T09:29:20.272Z,12.90
2018-03-06T09:31:51.171Z,14.10
2018-03-06T09:34:20.363Z,14.50
2018-03-06T09:36:55.136Z,13.67
2018-03-06T09:39:22.549Z,12.93
2018-03-06T09:41:52.265Z,13.53
2018-03-06T09:47:52.478Z,15.30
2018-03-06T09:50:20.723Z,13.57
2018-03-06T09:52:49.678Z,14.20
2018-03-06T09:55:24.334Z,14.17
2018-03-06T09:57:51.937Z,13.50
2018-03-06T10:00:21.581Z,14.20
2018-03-06T10:02:49.106Z,14.13
2018-03-06T10:05:18.643Z,14.47
2018-03-06T10:07:51.662Z,13.93
2018-03-06T10:10:19.239Z,14.80
2018-03-06T10:12:48.701Z,16.80
2018-03-06T10:15:21.911Z,15.07
2018-03-06T10:17:49.433Z,14.63
2018-03-06T10:20:19.845Z,16.33
2018-03-06T10:23:21.513Z,16.13
2018-03-06T10:25:49.812Z,16.07
2018-03-06T10:31:36.543Z,15.67
2018-03-06T10:34:13.794Z,16.70
2018-03-06T10:36:49.108Z,15.00
2018-03-06T10:39:19.417Z,13.93
2018-03-06T10:44:49.118Z,13.00
2018-03-06T10:50:20.489Z,12.70
2018-03-06T10:52:51.628Z,13.07
2018-03-06T10:55:19.445Z,13.23
2018-03-06T10:57:47.461Z,13.63
2018-03-06T11:00:24.338Z,13.73
2018-03-06T11:02:53.869Z,13.67
2018-03-06T11:05:53.699Z,13.43
2018-03-06T11:08:21.496Z,13.43
2018-03-06T11:10:50.985Z,13.43
2018-03-06T11:13:23.346Z,13.10
2018-03-06T11:15:51.056Z,12.27
2018-03-06T11:18:21.130Z,12.33
2018-03-06T11:29:49.779Z,14.00
2018-03-06T11:32:56.884Z,13.23
2018-03-06T11:41:20.420Z,12.83
2018-03-06T11:43:54.205Z,11.20
2018-03-06T11:46:21.810Z,12.67
2018-03-06T11:48:50.324Z,13.13
2018-03-06T11:54:28.272Z,13.20
2018-03-06T11:59:53.281Z,11.63
2018-03-06T12:02:20.822Z,11.50
2018-03-06T12:04:57.852Z,13.37
2018-03-06T12:07:25.480Z,12.60
2018-03-06T12:10:18.228Z,12.60
2018-03-06T12:15:50.539Z,12.40
2018-03-06T12:21:54.832Z,13.07
2018-03-06T12:24:22.285Z,13.00
2018-03-06T12:26:50.605Z,12.67
2018-03-06T12:41:51.194Z,11.57
2018-03-06T12:44:57.839Z,11.50
2018-03-06T12:47:25.325Z,10.83
